createdAt,value
2022-08-23T00:01:24.659Z,21.10
2022-08-23T00:03:53.892Z,21.10
2022-08-23T00:06:24.135Z,21.10
2022-08-23T00:08:53.208Z,21.10
2022-08-23T00:11:31.140Z,21.10
2022-08-23T00:14:01.209Z,21.00
2022-08-23T00:16:29.332Z,21.00
2022-08-23T00:18:57.349Z,20.90
2022-08-23T00:21:26.780Z,20.90
2022-08-23T00:23:54.780Z,20.90
2022-08-23T00:26:23.061Z,20.90
2022-08-23T00:28:51.471Z,20.90
2022-08-23T00:31:20.599Z,20.80
2022-08-23T00:33:48.601Z,20.80
2022-08-23T00:36:16.530Z,20.80
2022-08-23T00:38:45.863Z,20.70
2022-08-23T00:41:13.817Z,20.70
2022-08-23T00:44:00.881Z,20.60
2022-08-23T00:46:59.370Z,20.60
2022-08-23T00:49:27.704Z,20.50
2022-08-23T00:52:01.184Z,20.40
2022-08-23T00:54:32.360Z,20.40
2022-08-23T00:57:03.673Z,20.30
2022-08-23T00:59:31.631Z,20.30
2022-08-23T01:02:00.776Z,20.20
2022-08-23T01:04:32.803Z,20.10
2022-08-23T01:07:08.470Z,20.10
2022-08-23T01:09:40.472Z,20.10
2022-08-23T01:12:15.121Z,20.10
2022-08-23T01:14:47.361Z,20.10
2022-08-23T01:17:20.292Z,20.10
2022-08-23T01:19:53.422Z,20.10
2022-08-23T01:22:28.257Z,20.10
2022-08-23T01:25:05.857Z,20.10
2022-08-23T01:27:36.882Z,20.10
2022-08-23T01:30:06.840Z,20.00
2022-08-23T01:32:38.387Z,19.90
2022-08-23T01:35:07.029Z,19.90
2022-08-23T01:37:35.276Z,19.90
2022-08-23T01:40:06.072Z,19.90
2022-08-23T01:42:34.022Z,19.90
2022-08-23T01:45:02.036Z,19.90
2022-08-23T01:47:29.954Z,19.80
2022-08-23T01:49:58.028Z,19.80
2022-08-23T01:52:26.002Z,19.80
2022-08-23T01:54:54.559Z,19.80
2022-08-23T01:57:24.124Z,19.80
2022-08-23T01:59:52.064Z,19.80
2022-08-23T02:02:19.962Z,19.70
2022-08-23T02:04:48.035Z,19.70
2022-08-23T02:07:16.260Z,19.70
2022-08-23T02:09:44.511Z,19.70
2022-08-23T02:12:12.480Z,19.70
2022-08-23T02:14:42.242Z,19.60
2022-08-23T02:17:10.708Z,19.60
2022-08-23T02:19:40.056Z,19.60
2022-08-23T02:22:09.111Z,19.60
2022-08-23T02:24:41.165Z,19.60
2022-08-23T02:27:09.301Z,19.60
2022-08-23T02:29:39.051Z,19.50
2022-08-23T02:32:09.992Z,19.50
2022-08-23T02:34:38.219Z,19.40
2022-08-23T02:37:06.949Z,19.40
2022-08-23T02:39:36.295Z,19.40
2022-08-23T02:42:07.260Z,19.40
2022-08-23T02:44:38.267Z,19.40
2022-08-23T02:47:09.111Z,19.30
2022-08-23T02:49:37.447Z,19.30
2022-08-23T02:52:06.429Z,19.30
2022-08-23T02:54:35.009Z,19.20
2022-08-23T02:57:03.201Z,19.20
2022-08-23T02:59:31.433Z,19.20
2022-08-23T03:01:59.401Z,19.20
2022-08-23T03:04:29.142Z,19.10
2022-08-23T03:06:57.147Z,19.10
2022-08-23T03:09:25.289Z,19.10
2022-08-23T03:11:53.176Z,19.10
2022-08-23T03:14:21.171Z,19.10
2022-08-23T03:16:49.897Z,19.00
2022-08-23T03:19:17.912Z,18.90
2022-08-23T03:21:47.401Z,18.90
2022-08-23T03:24:15.765Z,18.90
2022-08-23T03:26:44.406Z,18.80
2022-08-23T03:29:12.360Z,18.80
2022-08-23T03:31:41.500Z,18.80
2022-08-23T03:34:10.846Z,18.80
2022-08-23T03:36:39.035Z,18.80
2022-08-23T03:39:08.604Z,18.70
2022-08-23T03:41:36.519Z,18.70
2022-08-23T03:44:05.274Z,18.70
2022-08-23T03:46:34.185Z,18.70
2022-08-23T03:49:03.473Z,18.70
2022-08-23T03:51:32.857Z,18.60
2022-08-23T03:54:01.144Z,18.60
2022-08-23T03:56:34.108Z,18.60
2022-08-23T03:59:05.110Z,18.60
2022-08-23T04:01:33.409Z,18.60
2022-08-23T04:04:01.486Z,18.60
2022-08-23T04:06:32.924Z,18.60
2022-08-23T04:09:01.208Z,18.60
2022-08-23T04:11:31.529Z,18.50
2022-08-23T04:13:59.458Z,18.50
2022-08-23T04:16:28.914Z,18.50
2022-08-23T04:18:57.317Z,18.50
2022-08-23T04:21:25.555Z,18.50
2022-08-23T04:23:54.021Z,18.40
2022-08-23T04:26:22.017Z,18.40
2022-08-23T04:28:51.983Z,18.40
2022-08-23T04:31:22.387Z,18.40
2022-08-23T04:33:52.492Z,18.40
2022-08-23T04:36:23.317Z,18.40
2022-08-23T04:38:51.949Z,18.30
2022-08-23T04:41:38.327Z,18.40
2022-08-23T04:44:07.629Z,18.30
2022-08-23T04:46:35.652Z,18.30
2022-08-23T04:49:04.095Z,18.30
2022-08-23T04:51:32.152Z,18.30
2022-08-23T04:54:00.149Z,18.30
2022-08-23T04:56:28.380Z,18.30
2022-08-23T04:58:56.539Z,18.30
2022-08-23T05:01:26.458Z,18.30
2022-08-23T05:03:55.919Z,18.20
2022-08-23T05:06:24.353Z,18.30
2022-08-23T05:08:52.375Z,18.30
2022-08-23T05:11:20.563Z,18.30
2022-08-23T05:13:48.726Z,18.30
2022-08-23T05:16:17.310Z,18.30
2022-08-23T05:18:47.026Z,18.30
2022-08-23T05:21:18.951Z,18.30
2022-08-23T05:23:51.007Z,18.30
2022-08-23T05:26:22.972Z,18.30
2022-08-23T05:28:51.168Z,18.20
2022-08-23T05:31:19.871Z,18.20
2022-08-23T05:33:49.714Z,18.20
2022-08-23T05:36:19.335Z,18.30
2022-08-23T05:38:47.682Z,18.30
2022-08-23T05:41:16.728Z,18.20
2022-08-23T05:43:44.882Z,18.20
2022-08-23T05:46:15.062Z,18.20
2022-08-23T05:48:51.005Z,18.20
2022-08-23T05:51:22.380Z,18.30
2022-08-23T05:53:51.548Z,18.40
2022-08-23T05:56:21.700Z,18.40
2022-08-23T05:58:52.146Z,18.50
2022-08-23T06:01:21.174Z,18.50
2022-08-23T06:03:51.061Z,18.60
2022-08-23T06:06:20.248Z,18.70
2022-08-23T06:08:49.447Z,18.70
2022-08-23T06:11:19.800Z,18.80
2022-08-23T06:13:50.199Z,18.80
2022-08-23T06:16:21.694Z,18.90
2022-08-23T06:18:52.011Z,19.00
2022-08-23T06:21:20.114Z,19.10
2022-08-23T06:23:49.392Z,19.20
2022-08-23T06:26:20.291Z,19.40
2022-08-23T06:28:51.160Z,19.50
2022-08-23T06:31:41.760Z,19.60
2022-08-23T06:34:14.069Z,19.70
2022-08-23T06:36:42.321Z,19.90
2022-08-23T06:39:12.339Z,19.90
2022-08-23T06:41:40.373Z,20.00
2022-08-23T06:44:09.160Z,20.00
2022-08-23T06:46:38.513Z,20.10
2022-08-23T06:49:08.400Z,20.20
2022-08-23T06:51:40.817Z,20.20
2022-08-23T06:54:12.373Z,20.30
2022-08-23T06:56:42.255Z,20.40
2022-08-23T06:59:10.507Z,20.40
2022-08-23T07:01:46.513Z,20.40
2022-08-23T07:04:17.284Z,20.60
2022-08-23T07:06:47.125Z,20.70
2022-08-23T07:09:16.096Z,20.70
2022-08-23T07:11:44.235Z,20.80
2022-08-23T07:14:14.532Z,20.90
2022-08-23T07:16:44.511Z,21.00
2022-08-23T07:19:13.412Z,21.10
2022-08-23T07:21:42.126Z,21.20
2022-08-23T07:24:11.596Z,21.40
2022-08-23T07:26:40.253Z,21.60
2022-08-23T07:29:09.699Z,21.70
2022-08-23T07:31:42.840Z,21.90
2022-08-23T07:34:11.120Z,22.00
2022-08-23T07:36:41.752Z,22.10
2022-08-23T07:39:11.983Z,22.20
2022-08-23T07:41:39.967Z,22.30
2022-08-23T07:44:09.833Z,22.40
2022-08-23T07:46:40.144Z,22.50
2022-08-23T07:49:09.183Z,22.60
2022-08-23T07:51:39.208Z,22.70
2022-08-23T07:54:10.096Z,22.70
2022-08-23T07:56:40.496Z,22.80
2022-08-23T07:59:09.352Z,22.90
2022-08-23T08:01:38.283Z,23.00
2022-08-23T08:04:08.041Z,23.10
2022-08-23T08:06:46.121Z,23.20
2022-08-23T08:09:15.434Z,23.30
2022-08-23T08:11:47.376Z,23.30
2022-08-23T08:14:17.149Z,23.40
2022-08-23T08:16:47.548Z,23.50
2022-08-23T08:19:18.834Z,23.60
2022-08-23T08:21:48.531Z,23.70
2022-08-23T08:24:17.974Z,23.70
2022-08-23T08:26:47.759Z,23.70
2022-08-23T08:29:16.206Z,23.70
2022-08-23T08:31:46.653Z,23.70
2022-08-23T08:34:15.439Z,23.60
2022-08-23T08:36:46.390Z,23.60
2022-08-23T08:39:18.545Z,23.60
2022-08-23T08:42:04.718Z,23.60
2022-08-23T08:44:41.304Z,23.60
2022-08-23T08:47:15.121Z,23.60
2022-08-23T08:49:48.545Z,23.60
2022-08-23T08:52:19.598Z,23.70
2022-08-23T08:54:49.844Z,23.70
2022-08-23T08:57:27.499Z,23.70
2022-08-23T09:00:00.639Z,23.80
2022-08-23T09:02:33.905Z,23.80
2022-08-23T09:05:04.893Z,23.80
2022-08-23T09:07:42.489Z,23.80
2022-08-23T09:10:34.581Z,23.90
2022-08-23T09:13:21.871Z,23.90
2022-08-23T09:15:57.592Z,24.00
2022-08-23T09:18:25.683Z,24.00
2022-08-23T09:20:56.447Z,24.10
2022-08-23T09:23:29.426Z,24.10
2022-08-23T09:26:03.575Z,24.10
2022-08-23T09:28:36.923Z,24.30
2022-08-23T09:31:08.192Z,24.30
2022-08-23T09:33:40.814Z,24.30
2022-08-23T09:36:17.602Z,24.40
2022-08-23T09:38:54.443Z,24.50
2022-08-23T09:41:27.122Z,24.60
2022-08-23T09:43:59.016Z,24.60
2022-08-23T09:46:29.172Z,24.60
2022-08-23T09:48:58.962Z,24.70
2022-08-23T09:51:31.009Z,24.80
2022-08-23T09:54:08.752Z,24.80
2022-08-23T09:56:40.261Z,24.90
2022-08-23T09:59:32.146Z,24.90
2022-08-23T10:02:02.057Z,25.00
2022-08-23T10:04:42.546Z,25.00
2022-08-23T10:07:27.929Z,25.10
2022-08-23T10:09:56.434Z,25.20
2022-08-23T10:12:25.008Z,25.20
2022-08-23T10:14:55.391Z,25.20
2022-08-23T10:17:35.096Z,25.20
2022-08-23T10:20:18.101Z,25.20
2022-08-23T10:22:51.605Z,25.30
2022-08-23T10:25:34.032Z,25.40
2022-08-23T10:28:31.241Z,25.30
2022-08-23T10:31:13.490Z,25.40
2022-08-23T10:33:47.510Z,25.60
2022-08-23T10:36:22.548Z,25.60
2022-08-23T10:38:57.370Z,25.70
2022-08-23T10:41:52.595Z,25.70
2022-08-23T10:44:26.783Z,25.80
2022-08-23T10:47:16.221Z,25.80
2022-08-23T10:49:49.013Z,26.20
2022-08-23T10:52:23.169Z,26.90
2022-08-23T10:55:00.921Z,27.60
2022-08-23T10:57:36.101Z,28.20
2022-08-23T11:00:08.074Z,28.60
2022-08-23T11:02:48.678Z,29.10
2022-08-23T11:05:23.917Z,29.40
2022-08-23T11:08:03.748Z,29.70
2022-08-23T11:10:56.207Z,29.90
2022-08-23T11:13:28.777Z,30.00
2022-08-23T11:16:00.990Z,29.90
2022-08-23T11:18:45.599Z,29.80
2022-08-23T11:21:46.625Z,29.90
2022-08-23T11:24:50.277Z,30.10
2022-08-23T11:27:37.042Z,30.40
2022-08-23T11:30:41.443Z,30.70
2022-08-23T11:33:16.261Z,30.90
2022-08-23T11:35:48.998Z,31.00
2022-08-23T11:38:22.457Z,31.10
2022-08-23T11:40:59.904Z,31.10
2022-08-23T11:43:36.931Z,31.20
2022-08-23T11:46:35.816Z,31.10
2022-08-23T11:49:36.494Z,31.00
2022-08-23T11:52:18.348Z,30.90
2022-08-23T11:55:01.453Z,30.90
2022-08-23T11:57:51.856Z,31.10
2022-08-23T12:00:28.766Z,31.30
2022-08-23T12:03:03.032Z,31.60
2022-08-23T12:06:04.490Z,31.70
2022-08-23T12:08:50.904Z,31.80
2022-08-23T12:11:20.438Z,31.80
2022-08-23T12:13:59.663Z,31.70
2022-08-23T12:16:39.666Z,31.70
2022-08-23T12:19:29.425Z,31.70
2022-08-23T12:21:58.021Z,31.70
2022-08-23T12:24:32.782Z,31.60
2022-08-23T12:27:10.661Z,31.80
2022-08-23T12:29:47.019Z,31.70
2022-08-23T12:32:21.084Z,31.70
2022-08-23T12:35:02.100Z,31.70
2022-08-23T12:37:38.280Z,31.70
2022-08-23T12:40:12.829Z,31.70
2022-08-23T12:42:42.161Z,31.80
2022-08-23T12:45:16.762Z,31.80
2022-08-23T12:47:58.215Z,32.00
2022-08-23T12:50:32.947Z,32.20
2022-08-23T12:53:03.375Z,32.20
2022-08-23T12:55:35.893Z,32.20
2022-08-23T12:58:04.906Z,32.00
2022-08-23T13:00:35.921Z,32.00
2022-08-23T13:03:08.439Z,31.90
2022-08-23T13:05:43.600Z,31.90
2022-08-23T13:08:14.381Z,31.90
2022-08-23T13:10:45.044Z,31.80
2022-08-23T13:13:15.426Z,31.90
2022-08-23T13:15:48.417Z,31.90
2022-08-23T13:18:32.962Z,31.90
2022-08-23T13:21:27.182Z,32.00
2022-08-23T13:23:57.685Z,32.20
2022-08-23T13:26:41.835Z,32.20
2022-08-23T13:29:13.128Z,32.20
2022-08-23T13:32:02.044Z,32.20
2022-08-23T13:34:37.494Z,32.20
2022-08-23T13:37:21.273Z,32.20
2022-08-23T13:39:52.539Z,32.30
2022-08-23T13:42:33.593Z,32.30
2022-08-23T13:45:10.147Z,32.30
2022-08-23T13:47:38.132Z,32.10
2022-08-23T13:50:13.155Z,32.10
2022-08-23T13:53:03.146Z,32.10
2022-08-23T13:55:30.971Z,32.20
2022-08-23T13:58:00.562Z,32.20
2022-08-23T14:00:28.526Z,32.40
2022-08-23T14:02:56.458Z,32.50
2022-08-23T14:05:24.968Z,32.50
2022-08-23T14:07:53.691Z,32.60
2022-08-23T14:10:22.895Z,32.60
2022-08-23T14:12:53.265Z,32.60
2022-08-23T14:15:54.516Z,32.60
2022-08-23T14:18:11.450Z,32.40
2022-08-23T14:20:46.700Z,32.40
2022-08-23T14:23:14.965Z,32.40
2022-08-23T14:25:43.079Z,32.40
2022-08-23T14:28:10.997Z,32.50
2022-08-23T14:30:40.509Z,32.50
2022-08-23T14:33:08.528Z,32.50
2022-08-23T14:35:36.670Z,32.50
2022-08-23T14:38:05.299Z,32.50
2022-08-23T14:40:33.805Z,32.50
2022-08-23T14:43:01.969Z,32.50
2022-08-23T14:45:30.084Z,32.50
2022-08-23T14:47:59.382Z,32.50
2022-08-23T14:50:28.677Z,32.50
2022-08-23T14:52:57.310Z,32.50
2022-08-23T14:55:25.486Z,32.50
2022-08-23T14:57:53.517Z,32.50
2022-08-23T15:00:21.623Z,32.50
2022-08-23T15:02:50.105Z,32.50
2022-08-23T15:05:21.704Z,32.60
2022-08-23T15:07:49.712Z,32.60
2022-08-23T15:13:29.796Z,32.80
2022-08-23T15:15:54.741Z,32.70
2022-08-23T15:18:22.860Z,32.60
2022-08-23T15:20:52.700Z,32.20
2022-08-23T15:23:20.936Z,31.80
2022-08-23T15:25:49.946Z,31.40
2022-08-23T15:28:19.854Z,31.00
2022-08-23T15:30:48.858Z,30.60
2022-08-23T15:33:17.001Z,30.30
2022-08-23T15:35:47.846Z,30.00
2022-08-23T15:38:17.947Z,29.80
2022-08-23T15:40:46.536Z,29.60
2022-08-23T15:43:14.515Z,29.40
2022-08-23T15:45:42.842Z,29.30
2022-08-23T15:48:17.403Z,29.10
2022-08-23T15:50:46.929Z,29.00
2022-08-23T15:53:17.083Z,29.00
2022-08-23T15:55:46.271Z,28.80
2022-08-23T15:58:17.516Z,28.70
2022-08-23T16:00:45.612Z,28.60
2022-08-23T16:03:18.976Z,28.50
2022-08-23T16:05:53.610Z,28.40
2022-08-23T16:08:27.304Z,28.30
2022-08-23T16:10:56.216Z,28.30
2022-08-23T16:13:24.926Z,28.20
2022-08-23T16:15:53.272Z,28.20
2022-08-23T16:18:21.255Z,28.10
2022-08-23T16:20:49.221Z,28.10
2022-08-23T16:23:23.502Z,28.10
2022-08-23T16:25:51.492Z,28.00
2022-08-23T16:28:19.524Z,28.00
2022-08-23T16:30:47.519Z,28.00
2022-08-23T16:33:15.574Z,27.90
2022-08-23T16:35:43.547Z,27.90
2022-08-23T16:38:11.456Z,27.80
2022-08-23T16:40:40.824Z,27.80
2022-08-23T16:43:08.798Z,27.80
2022-08-23T16:45:36.790Z,27.70
2022-08-23T16:48:05.417Z,27.70
2022-08-23T16:50:33.431Z,27.60
2022-08-23T16:53:06.404Z,27.60
2022-08-23T16:55:37.520Z,27.60
2022-08-23T16:58:07.722Z,27.50
2022-08-23T17:00:36.689Z,27.50
2022-08-23T17:03:05.980Z,27.50
2022-08-23T17:05:34.197Z,27.40
2022-08-23T17:08:03.026Z,27.40
2022-08-23T17:10:31.064Z,27.30
2022-08-23T17:12:59.605Z,27.30
2022-08-23T17:15:31.526Z,27.20
2022-08-23T17:18:00.759Z,27.20
2022-08-23T17:20:31.755Z,27.20
2022-08-23T17:22:59.858Z,27.10
2022-08-23T17:25:28.560Z,27.10
2022-08-23T17:27:57.526Z,27.00
2022-08-23T17:30:26.578Z,26.90
2022-08-23T17:32:56.372Z,26.90
2022-08-23T17:35:27.339Z,26.80
2022-08-23T17:37:56.166Z,26.80
2022-08-23T17:40:30.100Z,26.70
2022-08-23T17:43:00.249Z,26.70
2022-08-23T17:45:29.221Z,26.60
2022-08-23T17:47:58.750Z,26.60
2022-08-23T17:50:27.060Z,26.60
2022-08-23T17:52:55.031Z,26.50
2022-08-23T17:55:23.015Z,26.50
2022-08-23T17:57:52.371Z,26.40
2022-08-23T18:00:24.248Z,26.30
2022-08-23T18:02:52.228Z,26.30
2022-08-23T18:05:21.929Z,26.20
2022-08-23T18:07:49.876Z,26.20
2022-08-23T18:10:18.209Z,26.10
2022-08-23T18:12:46.190Z,26.00
2022-08-23T18:15:14.395Z,25.90
2022-08-23T18:17:42.682Z,25.90
2022-08-23T18:20:12.515Z,25.80
2022-08-23T18:22:42.052Z,25.70
2022-08-23T18:25:13.359Z,25.70
2022-08-23T18:27:59.375Z,25.60
2022-08-23T18:30:27.619Z,25.50
2022-08-23T18:32:55.987Z,25.40
2022-08-23T18:35:25.801Z,25.30
2022-08-23T18:37:55.198Z,25.30
2022-08-23T18:40:23.280Z,25.20
2022-08-23T18:42:51.991Z,25.20
2022-08-23T18:45:20.617Z,25.10
2022-08-23T18:47:49.832Z,25.00
2022-08-23T18:50:18.458Z,25.00
2022-08-23T18:52:46.439Z,24.90
2022-08-23T18:55:17.524Z,24.90
2022-08-23T18:57:45.470Z,24.80
2022-08-23T19:00:14.241Z,24.70
2022-08-23T19:02:42.269Z,24.60
2022-08-23T19:05:10.721Z,24.60
2022-08-23T19:07:38.771Z,24.50
2022-08-23T19:10:07.860Z,24.50
2022-08-23T19:12:37.569Z,24.40
2022-08-23T19:15:06.609Z,24.30
2022-08-23T19:17:34.733Z,24.30
2022-08-23T19:20:02.801Z,24.20
2022-08-23T19:22:30.734Z,24.20
2022-08-23T19:24:58.850Z,24.10
2022-08-23T19:27:26.813Z,24.10
2022-08-23T19:29:56.120Z,24.10
2022-08-23T19:32:24.376Z,24.10
2022-08-23T19:34:52.394Z,24.10
2022-08-23T19:37:23.205Z,24.00
2022-08-23T19:39:51.917Z,24.00
2022-08-23T19:42:20.719Z,23.90
2022-08-23T19:44:49.471Z,23.90
2022-08-23T19:47:23.664Z,23.90
2022-08-23T19:49:56.788Z,23.80
2022-08-23T19:52:24.945Z,23.80
2022-08-23T19:54:53.164Z,23.70
2022-08-23T19:57:21.729Z,23.70
2022-08-23T19:59:49.668Z,23.60
2022-08-23T20:02:19.098Z,23.60
2022-08-23T20:04:47.086Z,23.50
2022-08-23T20:07:15.064Z,23.50
2022-08-23T20:09:43.187Z,23.40
2022-08-23T20:12:11.489Z,23.40
2022-08-23T20:14:39.457Z,23.40
2022-08-23T20:17:07.506Z,23.30
2022-08-23T20:19:36.795Z,23.20
2022-08-23T20:22:22.361Z,23.20
2022-08-23T20:24:52.894Z,23.20
2022-08-23T20:27:30.918Z,23.20
2022-08-23T20:30:00.256Z,23.20
2022-08-23T20:32:29.187Z,23.20
2022-08-23T20:34:58.646Z,23.10
2022-08-23T20:37:26.585Z,23.10
2022-08-23T20:39:54.766Z,23.10
2022-08-23T20:42:22.878Z,23.10
2022-08-23T20:44:50.932Z,23.00
2022-08-23T20:47:19.411Z,23.00
2022-08-23T20:49:47.613Z,23.00
2022-08-23T20:52:18.209Z,23.00
2022-08-23T20:54:46.841Z,22.90
2022-08-23T20:57:14.938Z,22.80
2022-08-23T20:59:44.920Z,22.80
2022-08-23T21:02:13.912Z,22.80
2022-08-23T21:04:42.158Z,22.80
2022-08-23T21:07:10.177Z,22.70
2022-08-23T21:09:39.550Z,22.70
2022-08-23T21:12:07.923Z,22.70
2022-08-23T21:14:36.110Z,22.70
2022-08-23T21:17:04.092Z,22.60
2022-08-23T21:19:32.312Z,22.60
2022-08-23T21:22:00.260Z,22.60
2022-08-23T21:24:28.219Z,22.60
2022-08-23T21:26:57.560Z,22.60
2022-08-23T21:29:25.566Z,22.50
2022-08-23T21:31:53.822Z,22.60
2022-08-23T21:34:21.779Z,22.50
2022-08-23T21:36:51.237Z,22.50
2022-08-23T21:39:19.200Z,22.40
2022-08-23T21:41:48.205Z,22.40
2022-08-23T21:44:21.559Z,22.40
2022-08-23T21:46:50.101Z,22.30
2022-08-23T21:49:20.797Z,22.30
2022-08-23T21:51:49.353Z,22.20
2022-08-23T21:54:18.631Z,22.20
2022-08-23T21:56:46.994Z,22.10
2022-08-23T21:59:18.761Z,22.10
2022-08-23T22:01:47.127Z,22.10
2022-08-23T22:04:16.288Z,22.00
2022-08-23T22:06:46.316Z,22.00
2022-08-23T22:09:17.620Z,21.90
2022-08-23T22:11:47.426Z,21.90
2022-08-23T22:14:22.295Z,21.90
2022-08-23T22:16:54.986Z,21.90
2022-08-23T22:19:23.495Z,21.80
2022-08-23T22:21:52.476Z,21.80
2022-08-23T22:24:25.561Z,21.80
2022-08-23T22:26:54.741Z,21.80
2022-08-23T22:29:24.690Z,21.80
2022-08-23T22:31:52.716Z,21.70
2022-08-23T22:34:21.244Z,21.70
2022-08-23T22:36:52.018Z,21.60
2022-08-23T22:39:21.078Z,21.60
2022-08-23T22:41:49.080Z,21.60
2022-08-23T22:44:17.676Z,21.50
2022-08-23T22:46:47.119Z,21.50
2022-08-23T22:49:15.164Z,21.40
2022-08-23T22:51:43.695Z,21.40
2022-08-23T22:54:12.646Z,21.40
2022-08-23T22:56:42.979Z,21.40
2022-08-23T22:59:11.451Z,21.40
2022-08-23T23:01:44.256Z,21.40
2022-08-23T23:04:15.896Z,21.40
2022-08-23T23:06:44.636Z,21.30
2022-08-23T23:09:14.168Z,21.30
2022-08-23T23:11:42.795Z,21.20
2022-08-23T23:14:12.749Z,21.20
2022-08-23T23:16:41.423Z,21.20
2022-08-23T23:19:27.558Z,21.10
2022-08-23T23:21:58.590Z,21.10
2022-08-23T23:24:29.191Z,21.10
2022-08-23T23:26:57.692Z,21.00
2022-08-23T23:29:26.797Z,21.00
2022-08-23T23:31:54.896Z,20.90
2022-08-23T23:34:23.739Z,20.90
2022-08-23T23:36:58.130Z,20.90
2022-08-23T23:39:26.926Z,20.80
2022-08-23T23:41:55.474Z,20.80
2022-08-23T23:44:31.186Z,20.80
2022-08-23T23:47:00.483Z,20.80
2022-08-23T23:49:32.954Z,20.80
2022-08-23T23:52:04.955Z,20.70
2022-08-23T23:54:38.419Z,20.70
2022-08-23T23:57:07.918Z,20.60
2022-08-23T23:59:36.867Z,20.60
